createdAt,value
2022-11-30T00:01:17.274Z,5.48
2022-11-30T00:03:43.679Z,5.52
2022-11-30T00:06:13.628Z,5.47
2022-11-30T00:08:40.255Z,5.44
2022-11-30T00:11:12.704Z,5.43
2022-11-30T00:13:39.316Z,5.45
2022-11-30T00:16:06.152Z,5.54
2022-11-30T00:18:32.432Z,5.51
2022-11-30T00:21:00.666Z,5.52
2022-11-30T00:23:34.168Z,5.52
2022-11-30T00:26:06.187Z,5.47
2022-11-30T00:28:33.378Z,5.37
2022-11-30T00:31:01.953Z,5.33
2022-11-30T00:33:28.589Z,5.43
2022-11-30T00:35:59.741Z,5.39
2022-11-30T00:38:28.018Z,5.51
2022-11-30T00:40:55.863Z,5.38
2022-11-30T00:43:22.203Z,5.26
2022-11-30T00:45:48.763Z,5.31
2022-11-30T00:48:14.973Z,5.25
2022-11-30T00:50:41.455Z,5.25
2022-11-30T00:53:07.588Z,5.22
2022-11-30T00:55:34.136Z,5.38
2022-11-30T00:58:00.599Z,5.36
2022-11-30T01:00:28.214Z,5.33
2022-11-30T01:02:55.843Z,5.36
2022-11-30T01:05:22.308Z,5.26
2022-11-30T01:07:48.418Z,5.18
2022-11-30T01:10:15.060Z,5.01
2022-11-30T01:12:41.269Z,4.98
2022-11-30T01:15:08.331Z,4.84
2022-11-30T01:17:34.525Z,4.95
2022-11-30T01:20:00.863Z,4.98
2022-11-30T01:22:27.134Z,4.96
2022-11-30T01:24:53.542Z,4.95
2022-11-30T01:27:19.832Z,5.18
2022-11-30T01:29:46.225Z,4.94
2022-11-30T01:32:12.281Z,4.83
2022-11-30T01:34:38.644Z,4.84
2022-11-30T01:37:04.736Z,4.91
2022-11-30T01:39:31.118Z,4.93
2022-11-30T01:41:57.204Z,5.02
2022-11-30T01:44:26.214Z,4.88
2022-11-30T01:46:57.486Z,4.80
2022-11-30T01:49:28.472Z,4.79
2022-11-30T01:52:20.463Z,4.66
2022-11-30T01:54:55.222Z,4.77
2022-11-30T01:57:44.250Z,4.71
2022-11-30T02:00:13.131Z,4.77
2022-11-30T02:03:02.153Z,4.66
2022-11-30T02:05:30.683Z,4.65
2022-11-30T02:07:56.988Z,4.75
2022-11-30T02:10:29.409Z,4.62
2022-11-30T02:13:10.404Z,4.51
2022-11-30T02:15:50.917Z,4.55
2022-11-30T02:18:27.528Z,4.54
2022-11-30T02:21:13.222Z,4.47
2022-11-30T02:24:00.015Z,4.38
2022-11-30T02:26:38.558Z,4.39
2022-11-30T02:29:26.558Z,4.40
2022-11-30T02:32:04.674Z,4.30
2022-11-30T02:34:34.263Z,4.26
2022-11-30T02:37:02.750Z,4.34
2022-11-30T02:39:28.876Z,4.30
2022-11-30T02:41:55.240Z,4.34
2022-11-30T02:44:22.208Z,4.21
2022-11-30T02:47:07.351Z,4.16
2022-11-30T02:49:48.029Z,4.19
2022-11-30T02:52:15.537Z,4.26
2022-11-30T02:54:41.767Z,4.30
2022-11-30T02:57:08.730Z,4.28
2022-11-30T02:59:35.262Z,4.24
2022-11-30T03:02:01.738Z,4.12
2022-11-30T03:04:27.836Z,4.26
2022-11-30T03:06:54.271Z,4.23
2022-11-30T03:09:20.526Z,4.16
2022-11-30T03:11:46.882Z,4.16
2022-11-30T03:14:12.913Z,4.10
2022-11-30T03:16:39.362Z,4.04
2022-11-30T03:19:06.122Z,4.17
2022-11-30T03:21:32.555Z,4.20
2022-11-30T03:23:58.668Z,4.24
2022-11-30T03:26:25.013Z,4.25
2022-11-30T03:28:51.061Z,4.21
2022-11-30T03:31:17.608Z,4.40
2022-11-30T03:33:43.777Z,4.36
2022-11-30T03:36:11.769Z,4.39
2022-11-30T03:38:38.338Z,4.38
2022-11-30T03:41:08.064Z,4.41
2022-11-30T03:43:34.207Z,4.23
2022-11-30T03:46:00.814Z,4.21
2022-11-30T03:48:27.078Z,4.24
2022-11-30T03:50:53.565Z,4.35
2022-11-30T03:53:21.524Z,4.34
2022-11-30T03:55:52.739Z,4.22
2022-11-30T03:58:18.972Z,4.13
2022-11-30T04:00:45.333Z,4.07
2022-11-30T04:03:11.646Z,4.06
2022-11-30T04:05:38.130Z,3.89
2022-11-30T04:08:04.314Z,4.02
2022-11-30T04:10:30.688Z,4.06
2022-11-30T04:12:56.839Z,3.96
2022-11-30T04:15:23.245Z,3.88
2022-11-30T04:17:49.372Z,4.10
2022-11-30T04:20:16.185Z,4.19
2022-11-30T04:22:42.323Z,4.02
2022-11-30T04:25:08.912Z,4.24
2022-11-30T04:27:35.016Z,4.20
2022-11-30T04:30:01.438Z,4.31
2022-11-30T04:32:27.562Z,4.01
2022-11-30T04:34:54.045Z,3.77
2022-11-30T04:37:20.110Z,3.92
2022-11-30T04:39:46.566Z,3.88
2022-11-30T04:42:12.786Z,4.03
2022-11-30T04:44:39.525Z,4.01
2022-11-30T04:47:05.630Z,4.23
2022-11-30T04:49:32.370Z,4.24
2022-11-30T04:51:58.706Z,4.02
2022-11-30T04:54:25.448Z,4.07
2022-11-30T04:56:51.712Z,4.24
2022-11-30T04:59:18.623Z,4.25
2022-11-30T05:01:44.925Z,4.28
2022-11-30T05:04:11.906Z,4.20
2022-11-30T05:06:38.106Z,4.20
2022-11-30T05:09:04.584Z,4.31
2022-11-30T05:11:30.726Z,4.27
2022-11-30T05:13:57.104Z,4.19
2022-11-30T05:16:23.267Z,4.33
2022-11-30T05:18:49.687Z,4.40
2022-11-30T05:21:17.121Z,4.31
2022-11-30T05:23:43.486Z,4.27
2022-11-30T05:26:09.563Z,4.05
2022-11-30T05:28:36.147Z,3.76
2022-11-30T05:31:05.737Z,3.86
2022-11-30T05:33:32.887Z,3.93
2022-11-30T05:35:58.970Z,3.76
2022-11-30T05:38:25.328Z,3.85
2022-11-30T05:40:51.448Z,3.87
2022-11-30T05:43:18.188Z,3.80
2022-11-30T05:45:44.293Z,3.82
2022-11-30T05:48:10.663Z,3.91
2022-11-30T05:50:36.912Z,3.95
2022-11-30T05:53:03.332Z,4.00
2022-11-30T05:55:30.378Z,4.12
2022-11-30T05:57:56.810Z,4.14
2022-11-30T06:00:23.254Z,4.07
2022-11-30T06:02:55.591Z,4.04
2022-11-30T06:05:21.871Z,4.09
2022-11-30T06:07:48.304Z,4.01
2022-11-30T06:10:14.779Z,3.98
2022-11-30T06:12:41.169Z,4.02
2022-11-30T06:15:08.174Z,4.04
2022-11-30T06:17:37.189Z,4.06
2022-11-30T06:20:07.213Z,3.97
2022-11-30T06:22:33.629Z,4.05
2022-11-30T06:25:00.221Z,3.92
2022-11-30T06:27:30.568Z,3.56
2022-11-30T06:29:57.226Z,3.79
2022-11-30T06:32:23.654Z,3.82
2022-11-30T06:34:49.915Z,3.75
2022-11-30T06:37:17.152Z,3.85
2022-11-30T06:40:05.283Z,3.75
2022-11-30T06:42:30.687Z,3.56
2022-11-30T06:44:56.851Z,3.42
2022-11-30T06:47:23.651Z,3.59
2022-11-30T06:49:49.745Z,3.54
2022-11-30T06:52:16.566Z,3.59
2022-11-30T06:54:42.923Z,3.73
2022-11-30T06:57:09.387Z,3.79
2022-11-30T06:59:41.663Z,3.70
2022-11-30T07:02:17.481Z,3.84
2022-11-30T07:04:45.023Z,3.96
2022-11-30T07:07:11.714Z,3.83
2022-11-30T07:09:37.942Z,3.94
2022-11-30T07:12:05.077Z,3.95
2022-11-30T07:14:31.405Z,3.96
2022-11-30T07:16:57.825Z,3.81
2022-11-30T07:19:24.044Z,3.60
2022-11-30T07:21:50.532Z,3.63
2022-11-30T07:24:35.395Z,3.50
2022-11-30T07:27:03.462Z,3.62
2022-11-30T07:29:29.786Z,3.55
2022-11-30T07:31:56.382Z,3.55
2022-11-30T07:34:22.640Z,3.57
2022-11-30T07:36:49.295Z,3.83
2022-11-30T07:39:15.655Z,3.89
2022-11-30T07:41:42.469Z,3.85
2022-11-30T07:44:11.057Z,3.93
2022-11-30T07:46:38.130Z,4.04
2022-11-30T07:49:06.692Z,4.02
2022-11-30T07:51:33.687Z,4.05
2022-11-30T07:54:00.161Z,3.85
2022-11-30T07:56:27.807Z,3.78
2022-11-30T07:58:59.340Z,3.78
2022-11-30T08:01:28.737Z,3.96
2022-11-30T08:03:55.217Z,3.93
2022-11-30T08:06:24.826Z,4.03
2022-11-30T08:08:53.076Z,4.01
2022-11-30T08:11:24.863Z,3.95
2022-11-30T08:13:51.973Z,4.08
2022-11-30T08:16:24.115Z,4.07
2022-11-30T08:18:50.817Z,4.12
2022-11-30T08:21:19.901Z,4.14
2022-11-30T08:23:52.033Z,4.22
2022-11-30T08:26:21.169Z,4.04
2022-11-30T08:28:49.314Z,3.83
2022-11-30T08:31:38.777Z,4.03
2022-11-30T08:34:07.578Z,4.09
2022-11-30T08:36:34.711Z,4.12
2022-11-30T08:39:04.279Z,4.09
2022-11-30T08:41:31.196Z,4.13
2022-11-30T08:43:57.615Z,4.20
2022-11-30T08:49:26.313Z,4.41
2022-11-30T08:54:45.938Z,4.39
2022-11-30T08:57:18.259Z,4.28
2022-11-30T08:59:44.900Z,4.35
2022-11-30T09:02:13.895Z,4.37
2022-11-30T09:04:41.029Z,4.36
2022-11-30T09:07:08.809Z,4.33
2022-11-30T09:09:36.206Z,4.36
2022-11-30T09:12:02.588Z,4.40
2022-11-30T09:14:28.991Z,4.50
2022-11-30T09:16:55.131Z,4.30
2022-11-30T09:19:21.564Z,4.44
2022-11-30T09:21:51.836Z,4.33
2022-11-30T09:24:20.212Z,4.23
2022-11-30T09:26:46.400Z,4.30
2022-11-30T09:29:12.795Z,4.39
2022-11-30T09:31:38.848Z,4.32
2022-11-30T09:34:05.230Z,4.33
2022-11-30T09:36:33.148Z,4.40
2022-11-30T09:38:59.516Z,4.55
2022-11-30T09:41:40.776Z,4.56
2022-11-30T09:44:35.796Z,4.53
2022-11-30T09:47:21.329Z,4.34
2022-11-30T09:49:48.020Z,4.37
2022-11-30T09:52:25.722Z,4.24
2022-11-30T09:54:52.900Z,4.37
2022-11-30T09:57:29.646Z,4.36
2022-11-30T09:59:59.292Z,4.29
2022-11-30T10:02:31.759Z,4.18
2022-11-30T10:05:00.413Z,4.20
2022-11-30T10:07:43.603Z,4.02
2022-11-30T10:10:35.914Z,4.09
2022-11-30T10:13:21.329Z,4.34
2022-11-30T10:16:06.405Z,4.37
2022-11-30T10:18:38.984Z,4.32
2022-11-30T10:21:33.573Z,4.35
2022-11-30T10:24:05.829Z,4.47
2022-11-30T10:26:34.988Z,4.43
2022-11-30T10:29:16.834Z,4.17
2022-11-30T10:31:46.779Z,3.97
2022-11-30T10:34:22.246Z,3.87
2022-11-30T10:37:16.151Z,3.85
2022-11-30T10:39:55.134Z,4.01
2022-11-30T10:42:32.199Z,4.20
2022-11-30T10:45:19.385Z,4.30
2022-11-30T10:47:53.700Z,4.30
2022-11-30T10:50:23.724Z,4.35
2022-11-30T10:52:56.298Z,4.44
2022-11-30T10:55:39.263Z,4.57
2022-11-30T10:58:20.878Z,4.44
2022-11-30T11:01:00.100Z,4.27
2022-11-30T11:03:27.058Z,4.31
2022-11-30T11:06:14.804Z,4.16
2022-11-30T11:08:44.680Z,4.23
2022-11-30T11:11:36.040Z,4.16
2022-11-30T11:14:32.369Z,4.06
2022-11-30T11:17:21.115Z,4.08
2022-11-30T11:19:49.204Z,4.14
2022-11-30T11:22:19.281Z,4.08
2022-11-30T11:24:48.083Z,4.15
2022-11-30T11:27:22.136Z,3.89
2022-11-30T11:30:00.574Z,4.13
2022-11-30T11:32:27.253Z,4.20
2022-11-30T11:34:54.016Z,4.30
2022-11-30T11:37:30.403Z,4.18
2022-11-30T11:39:59.980Z,4.22
2022-11-30T11:42:30.771Z,4.25
2022-11-30T11:44:59.175Z,4.18
2022-11-30T11:47:27.190Z,4.10
2022-11-30T11:53:22.333Z,4.01
2022-11-30T11:55:57.985Z,3.94
2022-11-30T11:58:34.706Z,3.69
2022-11-30T12:01:38.266Z,3.81
2022-11-30T12:03:55.564Z,3.67
2022-11-30T12:06:23.135Z,3.63
2022-11-30T12:08:58.999Z,3.74
2022-11-30T12:11:32.512Z,3.82
2022-11-30T12:14:01.069Z,3.92
2022-11-30T12:16:30.916Z,3.93
2022-11-30T12:19:15.083Z,4.00
2022-11-30T12:22:03.183Z,3.90
2022-11-30T12:24:38.535Z,3.83
2022-11-30T12:27:54.587Z,3.80
2022-11-30T12:31:10.985Z,3.94
2022-11-30T12:33:43.513Z,3.70
2022-11-30T12:36:16.202Z,3.89
2022-11-30T12:39:04.919Z,3.84
2022-11-30T12:41:42.197Z,3.96
2022-11-30T12:44:29.064Z,4.01
2022-11-30T12:47:36.182Z,4.03
2022-11-30T12:50:41.224Z,3.89
2022-11-30T12:53:25.084Z,3.69
2022-11-30T12:56:16.542Z,3.79
2022-11-30T12:58:50.197Z,3.83
2022-11-30T13:01:36.300Z,3.84
2022-11-30T13:04:28.760Z,3.94
2022-11-30T13:07:12.315Z,4.06
2022-11-30T13:09:48.573Z,3.92
2022-11-30T13:12:36.607Z,4.05
2022-11-30T13:15:09.811Z,4.02
2022-11-30T13:17:42.515Z,4.15
2022-11-30T13:20:30.741Z,4.24
2022-11-30T13:23:33.336Z,4.33
2022-11-30T13:26:24.561Z,4.11
2022-11-30T13:29:15.574Z,4.24
2022-11-30T13:31:53.281Z,4.10
2022-11-30T13:34:26.555Z,4.05
2022-11-30T13:37:28.061Z,3.81
2022-11-30T13:39:57.713Z,3.76
2022-11-30T13:42:40.486Z,3.99
2022-11-30T13:45:13.057Z,4.12
2022-11-30T13:47:52.162Z,4.13
2022-11-30T13:50:30.778Z,4.15
2022-11-30T13:52:56.956Z,4.07
2022-11-30T13:55:35.781Z,4.15
2022-11-30T13:58:06.683Z,3.85
2022-11-30T14:00:33.113Z,3.93
2022-11-30T14:03:25.232Z,3.82
2022-11-30T14:05:57.233Z,3.75
2022-11-30T14:08:23.400Z,3.85
2022-11-30T14:10:50.788Z,3.79
2022-11-30T14:13:19.355Z,3.75
2022-11-30T14:15:45.903Z,3.84
2022-11-30T14:18:18.188Z,3.99
2022-11-30T14:20:49.940Z,4.00
2022-11-30T14:23:52.898Z,4.24
2022-11-30T14:26:37.147Z,4.37
2022-11-30T14:29:06.928Z,4.36
2022-11-30T14:31:42.555Z,4.49
2022-11-30T14:34:26.612Z,4.28
2022-11-30T14:37:25.175Z,4.27
2022-11-30T14:39:56.218Z,4.33
2022-11-30T14:42:24.408Z,4.32
2022-11-30T14:44:50.943Z,4.23
2022-11-30T14:47:30.537Z,4.26
2022-11-30T14:50:00.998Z,4.40
2022-11-30T14:52:43.662Z,4.18
2022-11-30T14:55:28.529Z,4.04
2022-11-30T14:58:20.081Z,3.94
2022-11-30T15:00:47.623Z,3.93
2022-11-30T15:03:24.545Z,3.91
2022-11-30T15:05:54.292Z,3.88
2022-11-30T15:08:23.527Z,3.89
2022-11-30T15:10:50.409Z,3.90
2022-11-30T15:13:19.253Z,3.89
2022-11-30T15:15:53.940Z,3.86
2022-11-30T15:18:23.288Z,3.93
2022-11-30T15:21:03.480Z,3.90
2022-11-30T15:23:30.613Z,3.72
2022-11-30T15:26:06.128Z,3.83
2022-11-30T15:28:38.756Z,3.55
2022-11-30T15:31:10.170Z,3.79
2022-11-30T15:33:41.984Z,3.66
2022-11-30T15:36:32.973Z,3.70
2022-11-30T15:38:55.927Z,3.78
2022-11-30T15:41:24.789Z,3.81
2022-11-30T15:43:53.842Z,3.77
2022-11-30T15:46:44.582Z,3.78
2022-11-30T15:49:28.645Z,3.52
2022-11-30T15:52:16.280Z,3.47
2022-11-30T15:54:46.095Z,3.69
2022-11-30T15:57:13.511Z,3.85
2022-11-30T15:59:40.443Z,3.63
2022-11-30T16:02:27.255Z,3.63
2022-11-30T16:04:57.652Z,3.66
2022-11-30T16:07:28.044Z,3.62
2022-11-30T16:10:21.759Z,3.70
2022-11-30T16:12:50.564Z,3.70
2022-11-30T16:15:30.066Z,3.80
2022-11-30T16:18:11.710Z,3.85
2022-11-30T16:20:40.722Z,3.88
2022-11-30T16:23:13.752Z,3.88
2022-11-30T16:25:41.967Z,3.72
2022-11-30T16:28:09.637Z,3.78
2022-11-30T16:30:38.394Z,3.77
2022-11-30T16:33:07.699Z,3.86
2022-11-30T16:35:48.087Z,4.06
2022-11-30T16:38:14.468Z,4.04
2022-11-30T16:40:41.166Z,4.06
2022-11-30T16:43:10.996Z,4.20
2022-11-30T16:45:39.494Z,4.01
2022-11-30T16:48:10.024Z,4.13
2022-11-30T16:50:38.219Z,4.00
2022-11-30T16:53:04.966Z,4.06
2022-11-30T16:55:34.372Z,4.09
2022-11-30T16:58:01.218Z,4.01
2022-11-30T17:00:28.156Z,3.80
2022-11-30T17:02:54.454Z,3.82
2022-11-30T17:05:21.093Z,3.80
2022-11-30T17:07:47.700Z,3.75
2022-11-30T17:10:14.309Z,3.93
2022-11-30T17:12:41.283Z,4.00
2022-11-30T17:15:18.748Z,4.05
2022-11-30T17:17:45.060Z,4.16
2022-11-30T17:20:13.585Z,4.11
2022-11-30T17:22:40.662Z,4.19
2022-11-30T17:25:12.657Z,4.23
2022-11-30T17:27:39.013Z,4.08
2022-11-30T17:30:06.382Z,4.16
2022-11-30T17:32:33.159Z,4.10
2022-11-30T17:34:59.918Z,3.83
2022-11-30T17:37:26.509Z,3.89
2022-11-30T17:39:53.204Z,3.79
2022-11-30T17:42:19.507Z,3.86
2022-11-30T17:44:47.543Z,3.85
2022-11-30T17:47:13.927Z,3.96
2022-11-30T17:49:43.839Z,3.81
2022-11-30T17:52:10.171Z,3.84
2022-11-30T17:54:36.694Z,3.98
2022-11-30T17:57:03.446Z,4.00
2022-11-30T17:59:30.012Z,4.15
2022-11-30T18:01:56.668Z,4.21
2022-11-30T18:04:23.388Z,4.23
2022-11-30T18:06:49.783Z,4.11
2022-11-30T18:09:16.628Z,3.94
2022-11-30T18:11:43.067Z,3.97
2022-11-30T18:14:10.057Z,3.78
2022-11-30T18:16:36.613Z,3.66
2022-11-30T18:19:11.801Z,3.57
2022-11-30T18:21:39.648Z,3.85
2022-11-30T18:24:06.855Z,3.64
2022-11-30T18:26:34.992Z,3.55
2022-11-30T18:29:06.536Z,3.53
2022-11-30T18:31:35.952Z,3.57
2022-11-30T18:34:05.662Z,3.48
2022-11-30T18:36:33.388Z,3.53
2022-11-30T18:39:00.375Z,3.47
2022-11-30T18:41:29.434Z,3.48
2022-11-30T18:43:57.282Z,3.48
2022-11-30T18:46:26.017Z,3.53
2022-11-30T18:48:55.674Z,3.70
2022-11-30T18:51:25.432Z,3.75
2022-11-30T18:53:57.853Z,4.10
2022-11-30T18:56:25.623Z,4.23
2022-11-30T18:59:01.213Z,4.20
2022-11-30T19:01:28.653Z,4.19
2022-11-30T19:03:57.982Z,4.35
2022-11-30T19:06:27.707Z,4.61
2022-11-30T19:08:57.953Z,4.63
2022-11-30T19:11:25.226Z,4.72
2022-11-30T19:13:56.857Z,4.64
2022-11-30T19:16:24.711Z,4.68
2022-11-30T19:18:56.605Z,4.81
2022-11-30T19:21:23.566Z,4.80
2022-11-30T19:23:50.161Z,4.81
2022-11-30T19:26:17.034Z,4.70
2022-11-30T19:28:44.899Z,4.52
2022-11-30T19:31:14.414Z,4.53
2022-11-30T19:33:42.949Z,4.56
2022-11-30T19:36:18.273Z,4.57
2022-11-30T19:38:45.308Z,4.44
2022-11-30T19:41:14.147Z,4.40
2022-11-30T19:43:40.904Z,4.44
2022-11-30T19:46:15.383Z,4.26
2022-11-30T19:48:43.684Z,4.17
2022-11-30T19:51:18.313Z,4.32
2022-11-30T19:53:45.349Z,4.21
2022-11-30T19:56:14.764Z,4.22
2022-11-30T19:58:43.376Z,4.25
2022-11-30T20:01:19.262Z,4.49
2022-11-30T20:03:45.893Z,4.66
2022-11-30T20:06:12.298Z,4.60
2022-11-30T20:08:41.417Z,4.57
2022-11-30T20:11:09.883Z,4.83
2022-11-30T20:13:37.222Z,4.73
2022-11-30T20:16:22.431Z,4.92
2022-11-30T20:19:00.473Z,4.97
2022-11-30T20:21:32.746Z,4.92
2022-11-30T20:24:03.721Z,4.77
2022-11-30T20:26:41.107Z,4.71
2022-11-30T20:29:12.473Z,4.68
2022-11-30T20:31:39.695Z,4.53
2022-11-30T20:34:07.552Z,4.16
2022-11-30T20:36:34.599Z,4.08
2022-11-30T20:39:02.257Z,3.86
2022-11-30T20:41:28.710Z,3.98
2022-11-30T20:43:56.261Z,4.11
2022-11-30T20:46:27.083Z,4.20
2022-11-30T20:48:54.387Z,4.31
2022-11-30T20:51:32.027Z,4.28
2022-11-30T20:54:01.662Z,4.30
2022-11-30T20:56:28.376Z,4.00
2022-11-30T20:58:55.086Z,4.12
2022-11-30T21:01:22.428Z,4.10
2022-11-30T21:03:49.437Z,4.10
2022-11-30T21:06:15.812Z,4.26
2022-11-30T21:08:43.036Z,4.45
2022-11-30T21:11:15.636Z,4.32
2022-11-30T21:13:43.734Z,4.35
2022-11-30T21:16:13.847Z,3.96
2022-11-30T21:18:43.309Z,3.92
2022-11-30T21:21:15.716Z,4.18
2022-11-30T21:23:43.295Z,4.29
2022-11-30T21:26:36.932Z,4.10
2022-11-30T21:29:09.464Z,4.20
2022-11-30T21:31:35.699Z,4.16
2022-11-30T21:34:03.300Z,4.33
2022-11-30T21:36:29.672Z,4.37
2022-11-30T21:39:05.067Z,4.43
2022-11-30T21:41:33.186Z,4.59
2022-11-30T21:44:00.009Z,4.39
2022-11-30T21:46:26.282Z,4.63
2022-11-30T21:48:53.028Z,4.47
2022-11-30T21:51:22.116Z,4.55
2022-11-30T21:53:52.519Z,4.47
2022-11-30T21:56:22.131Z,4.38
2022-11-30T21:58:49.832Z,4.55
2022-11-30T22:01:25.962Z,4.60
2022-11-30T22:03:55.703Z,4.75
2022-11-30T22:06:24.319Z,4.91
2022-11-30T22:08:51.101Z,4.78
2022-11-30T22:11:22.347Z,4.92
2022-11-30T22:13:52.956Z,4.96
2022-11-30T22:16:21.096Z,4.93
2022-11-30T22:18:50.830Z,4.97
2022-11-30T22:21:19.349Z,5.01
2022-11-30T22:23:51.955Z,4.96
2022-11-30T22:26:24.319Z,4.90
2022-11-30T22:28:54.037Z,4.83
2022-11-30T22:31:22.343Z,4.65
2022-11-30T22:33:49.455Z,4.69
2022-11-30T22:36:18.922Z,4.74
2022-11-30T22:38:46.235Z,4.94
2022-11-30T22:41:15.196Z,4.93
2022-11-30T22:43:42.702Z,4.95
2022-11-30T22:46:15.524Z,4.93
2022-11-30T22:48:42.866Z,4.84
2022-11-30T22:51:12.025Z,4.81
2022-11-30T22:53:39.599Z,4.97
2022-11-30T22:56:24.030Z,5.09
2022-11-30T22:58:53.469Z,5.19
2022-11-30T23:01:24.641Z,5.04
2022-11-30T23:03:55.659Z,5.12
2022-11-30T23:06:24.767Z,5.12
2022-11-30T23:08:51.679Z,5.28
2022-11-30T23:11:23.128Z,5.29
2022-11-30T23:13:50.182Z,5.25
2022-11-30T23:16:16.891Z,5.04
2022-11-30T23:18:53.888Z,5.16
2022-11-30T23:21:25.801Z,5.19
2022-11-30T23:23:54.702Z,5.32
2022-11-30T23:26:23.572Z,5.44
2022-11-30T23:28:52.111Z,5.36
2022-11-30T23:31:34.036Z,5.54
2022-11-30T23:34:07.933Z,5.41
2022-11-30T23:36:34.904Z,5.32
2022-11-30T23:39:09.401Z,5.46
2022-11-30T23:41:35.809Z,5.52
2022-11-30T23:44:02.290Z,5.38
2022-11-30T23:46:28.971Z,5.25
2022-11-30T23:48:55.989Z,5.23
2022-11-30T23:51:22.947Z,5.22
2022-11-30T23:53:49.321Z,5.06
2022-11-30T23:56:17.752Z,5.07
2022-11-30T23:58:44.517Z,5.10
